Time;durP1;ratioP1;P1;durP2;ratioP2;P2;SDS_P1;SDS_P2;PMS_P1;PMS_P2;Temp;Humidity;BMP_temperature;BMP_pressure;BME280_temperature;BME280_humidity;BME280_pressure;Samples;Min_cycle;Max_cycle;Signal;HPM_P1;HPM_P2
2021/07/23 00:00:45;;;;;;;7.33;3.08;;;;;;;17.99;53.99;100425.59;1760822;79;21094;-69
2021/07/23 00:03:12;;;;;;;5.35;2.42;;;;;;;17.98;53.87;100430.56;1761716;81;21118;-69
2021/07/23 00:05:40;;;;;;;9.98;3.15;;;;;;;17.97;53.64;100431.59;1755097;80;21043;-69
2021/07/23 00:08:08;;;;;;;5.30;2.55;;;;;;;17.93;53.63;100432.91;1752565;80;21062;-69
2021/07/23 00:10:36;;;;;;;7.58;3.17;;;;;;;17.88;53.76;100429.11;1762963;80;21596;-69
2021/07/23 00:13:03;;;;;;;6.25;2.75;;;;;;;17.83;53.87;100430.39;1758288;81;21019;-68
2021/07/23 00:15:31;;;;;;;5.65;2.62;;;;;;;17.79;54.07;100432.26;1784655;79;21052;-69
2021/07/23 00:17:58;;;;;;;5.97;3.17;;;;;;;17.76;54.16;100429.92;1762066;80;21056;-68
2021/07/23 00:20:25;;;;;;;7.50;2.83;;;;;;;17.74;54.18;100434.59;1778859;80;21091;-69
2021/07/23 00:22:52;;;;;;;6.60;3.02;;;;;;;17.73;54.27;100434.25;1784499;79;21101;-69
2021/07/23 00:25:19;;;;;;;5.08;2.80;;;;;;;17.73;54.35;100435.58;1755189;80;21089;-69
2021/07/23 00:27:46;;;;;;;5.72;2.75;;;;;;;17.72;54.35;100430.77;1779308;80;22166;-70
2021/07/23 00:30:14;;;;;;;6.15;3.00;;;;;;;17.70;54.38;100434.58;1753263;80;21076;-69
2021/07/23 00:32:41;;;;;;;6.10;2.60;;;;;;;17.67;54.44;100434.91;1783274;80;21639;-69
2021/07/23 00:35:09;;;;;;;5.00;2.58;;;;;;;17.64;54.53;100440.91;1726951;81;21011;-69
2021/07/23 00:37:37;;;;;;;6.70;2.58;;;;;;;17.63;54.67;100441.07;1780792;80;21098;-70
2021/07/23 00:40:07;;;;;;;6.20;2.60;;;;;;;17.59;54.67;100439.25;1758554;80;21113;-70
2021/07/23 00:42:42;;;;;;;7.12;2.33;;;;;;;17.57;54.73;100433.78;1777026;80;21485;-69
2021/07/23 00:45:10;;;;;;;5.35;3.10;;;;;;;17.56;54.81;100438.76;1806524;78;21469;-69
2021/07/23 00:47:38;;;;;;;4.75;2.45;;;;;;;17.55;54.78;100441.92;1801753;78;21093;-69
2021/07/23 00:50:06;;;;;;;6.78;3.25;;;;;;;17.57;54.85;100440.44;1773726;80;21094;-70
2021/07/23 00:52:32;;;;;;;5.53;2.72;;;;;;;17.57;54.81;100439.92;1794935;78;21039;-69
2021/07/23 00:55:00;;;;;;;4.83;2.35;;;;;;;17.56;54.83;100439.58;1785172;80;21585;-69
2021/07/23 00:57:27;;;;;;;7.95;2.90;;;;;;;17.57;55.17;100442.58;1774749;78;21520;-69
2021/07/23 00:59:54;;;;;;;6.17;2.65;;;;;;;17.55;55.55;100437.94;1789965;80;21054;-69
2021/07/23 01:02:20;;;;;;;6.28;2.85;;;;;;;17.53;55.63;100437.25;1773253;78;21058;-69
2021/07/23 01:04:49;;;;;;;7.22;2.95;;;;;;;17.47;55.83;100433.95;1807290;78;21070;-69
2021/07/23 01:07:15;;;;;;;8.85;3.35;;;;;;;17.44;56.17;100432.44;1750363;80;21513;-69
2021/07/23 01:09:42;;;;;;;4.37;2.47;;;;;;;17.41;55.95;100433.27;1790823;78;21086;-69
2021/07/23 01:12:11;;;;;;;6.03;2.40;;;;;;;17.37;55.89;100435.94;1804166;78;21058;-69
2021/07/23 01:14:40;;;;;;;4.58;2.37;;;;;;;17.35;56.23;100437.44;1799021;78;21089;-69
2021/07/23 01:17:08;;;;;;;7.75;2.98;;;;;;;17.36;56.63;100435.59;1757115;80;21069;-69
2021/07/23 01:19:42;;;;;;;5.17;2.65;;;;;;;17.34;56.88;100436.27;1803124;78;21531;-69
2021/07/23 01:22:10;;;;;;;8.78;2.83;;;;;;;17.35;57.45;100435.25;1784465;78;21005;-69
2021/07/23 01:24:36;;;;;;;6.50;2.77;;;;;;;17.39;58.15;100437.93;1806369;78;21043;-69
2021/07/23 01:27:05;;;;;;;6.42;3.00;;;;;;;17.49;58.10;100439.09;1802397;78;21056;-69
2021/07/23 01:29:36;;;;;;;5.58;2.87;;;;;;;17.55;58.44;100441.92;1763677;80;21232;-69
2021/07/23 01:32:04;;;;;;;8.15;2.75;;;;;;;17.59;57.52;100437.92;1773083;79;21559;-69
2021/07/23 01:34:32;;;;;;;6.83;2.55;;;;;;;17.58;56.96;100440.74;1801786;78;20999;-69
2021/07/23 01:36:59;;;;;;;6.08;3.00;;;;;;;17.56;56.76;100439.58;1772920;80;21109;-69
2021/07/23 01:39:26;;;;;;;9.55;2.75;;;;;;;17.53;56.54;100439.09;1763709;80;21081;-69
2021/07/23 01:41:53;;;;;;;6.75;2.37;;;;;;;17.46;56.39;100440.25;1779719;80;21272;-68
2021/07/23 01:44:20;;;;;;;4.75;2.25;;;;;;;17.40;56.15;100447.55;1751896;80;21074;-69
2021/07/23 01:46:46;;;;;;;4.90;2.50;;;;;;;17.32;56.21;100442.26;1787230;80;21505;-69
2021/07/23 01:49:15;;;;;;;5.95;2.52;;;;;;;17.25;56.49;100442.09;1769314;78;21528;-69
2021/07/23 01:51:42;;;;;;;4.65;2.70;;;;;;;17.21;56.52;100440.73;1775885;80;21089;-69
2021/07/23 01:54:13;;;;;;;6.03;2.92;;;;;;;17.15;56.65;100436.09;1778368;78;21156;-70
2021/07/23 01:56:43;;;;;;;4.60;2.25;;;;;;;17.09;56.90;100438.89;1774684;80;21610;-69
2021/07/23 01:59:11;;;;;;;8.55;2.62;;;;;;;17.02;57.40;100445.36;1775599;78;21014;-69
2021/07/23 02:01:40;;;;;;;5.83;2.40;;;;;;;16.98;57.76;100444.04;1787984;78;21093;-70
2021/07/23 02:04:14;;;;;;;4.75;2.20;;;;;;;16.94;57.96;100437.88;1798989;78;21537;-69
2021/07/23 02:06:41;;;;;;;6.53;3.15;;;;;;;16.92;58.08;100438.55;1802506;78;21866;-69
2021/07/23 02:09:10;;;;;;;4.70;2.60;;;;;;;16.89;58.12;100437.88;1799005;78;20980;-69
2021/07/23 02:11:40;;;;;;;4.75;2.45;;;;;;;16.89;58.27;100439.21;1783844;79;21049;-69
2021/07/23 02:14:08;;;;;;;5.80;2.98;;;;;;;16.88;58.97;100441.52;1778395;80;21567;-69
2021/07/23 02:16:35;;;;;;;4.50;2.47;;;;;;;16.94;59.77;100446.67;1802904;78;21050;-69
2021/07/23 02:19:02;;;;;;;5.12;2.58;;;;;;;17.05;59.75;100445.55;1785967;79;21069;-69
2021/07/23 02:21:35;;;;;;;6.50;2.12;;;;;;;17.12;58.29;100443.06;1802687;77;21045;-69
2021/07/23 02:24:03;;;;;;;6.72;2.42;;;;;;;17.11;57.72;100444.05;1789518;78;21069;-69
2021/07/23 02:26:29;;;;;;;7.12;2.35;;;;;;;17.07;57.45;100446.21;1788920;79;21055;-69
2021/07/23 02:28:59;;;;;;;5.15;2.22;;;;;;;17.02;57.29;100445.36;1798387;78;21611;-69
2021/07/23 02:31:27;;;;;;;6.10;2.27;;;;;;;16.99;57.27;100447.52;1780190;78;21149;-69
2021/07/23 02:33:58;;;;;;;5.95;2.60;;;;;;;16.97;57.25;100445.53;1786821;80;21119;-69
2021/07/23 02:36:30;;;;;;;6.37;2.77;;;;;;;16.94;57.32;100441.36;1815424;78;21047;-69
2021/07/23 02:38:57;;;;;;;5.42;2.33;;;;;;;16.92;57.25;100445.19;1787726;78;21081;-69
2021/07/23 02:41:24;;;;;;;7.75;2.58;;;;;;;16.88;57.25;100444.18;1794397;78;21030;-69
2021/07/23 02:43:52;;;;;;;5.22;2.12;;;;;;;16.82;57.39;100442.12;1783244;79;21128;-69
2021/07/23 02:46:20;;;;;;;6.15;2.22;;;;;;;16.79;57.60;100441.12;1787333;80;21072;-69
2021/07/23 02:48:47;;;;;;;5.78;2.50;;;;;;;16.80;57.74;100443.30;1783361;78;21049;-69
2021/07/23 02:51:14;;;;;;;6.95;2.02;;;;;;;16.78;57.77;100442.61;1785916;78;21053;-69
2021/07/23 02:53:42;;;;;;;5.03;2.42;;;;;;;16.75;57.85;100445.61;1779743;78;21037;-69
2021/07/23 02:56:09;;;;;;;7.37;3.10;;;;;;;16.69;57.99;100443.94;1801809;78;21112;-68
2021/07/23 02:58:40;;;;;;;10.08;2.87;;;;;;;16.66;58.15;100451.38;1765160;80;21062;-69
2021/07/23 03:01:08;;;;;;;7.75;2.52;;;;;;;16.63;58.19;100445.90;1806990;78;21065;-69
2021/07/23 03:03:36;;;;;;;4.60;2.22;;;;;;;16.62;58.50;100448.72;1798226;78;21065;-71
2021/07/23 03:06:03;;;;;;;5.85;2.15;;;;;;;16.63;58.73;100449.06;1778945;79;21056;-70
2021/07/23 03:08:31;;;;;;;6.10;2.60;;;;;;;16.64;58.70;100452.03;1782393;80;21097;-68
2021/07/23 03:10:58;;;;;;;4.50;2.42;;;;;;;16.66;58.59;100444.73;1811463;78;21050;-67
2021/07/23 03:13:27;;;;;;;5.45;2.58;;;;;;;16.66;59.07;100446.91;1760866;80;21057;-66
2021/07/23 03:15:54;;;;;;;10.20;2.50;;;;;;;16.71;58.93;100446.44;1794185;80;21107;-68
2021/07/23 03:18:22;;;;;;;5.80;2.47;;;;;;;16.81;58.82;100443.61;1747089;79;21136;-67
2021/07/23 03:20:49;;;;;;;7.10;2.30;;;;;;;16.89;58.88;100438.36;1768683;78;21163;-67
2021/07/23 03:23:16;;;;;;;4.67;2.45;;;;;;;16.97;59.17;100436.22;1800672;78;21045;-67
2021/07/23 03:25:47;;;;;;;6.75;2.60;;;;;;;17.04;59.04;100435.90;1805482;78;21050;-68
2021/07/23 03:28:19;;;;;;;5.03;2.37;;;;;;;17.09;58.97;100438.89;1793244;80;21089;-67
2021/07/23 03:30:47;;;;;;;3.98;1.95;;;;;;;17.12;59.07;100439.91;1772124;77;21057;-68
2021/07/23 03:33:14;;;;;;;4.75;2.27;;;;;;;17.18;58.70;100437.07;1754661;80;21757;-68
2021/07/23 03:35:42;;;;;;;5.08;2.17;;;;;;;17.23;58.56;100435.60;1756365;78;21097;-68
2021/07/23 03:38:10;;;;;;;5.28;2.10;;;;;;;17.26;58.18;100437.94;1782847;78;21667;-68
2021/07/23 03:40:37;;;;;;;5.60;2.35;;;;;;;17.26;57.66;100441.92;1769205;79;21482;-68
2021/07/23 03:43:05;;;;;;;7.65;3.02;;;;;;;17.23;57.54;100438.27;1754786;80;21535;-68
2021/07/23 03:45:33;;;;;;;4.90;2.00;;;;;;;17.19;57.80;100442.73;1761620;80;21771;-68
2021/07/23 03:48:03;;;;;;;7.05;2.30;;;;;;;17.15;57.96;100442.23;1758891;81;21089;-68
2021/07/23 03:50:31;;;;;;;6.65;2.47;;;;;;;17.12;58.18;100442.56;1730041;81;21129;-68
2021/07/23 03:52:59;;;;;;;7.53;2.42;;;;;;;17.10;58.03;100441.90;1761441;81;21055;-68
2021/07/23 03:55:37;;;;;;;4.42;2.20;;;;;;;17.10;58.22;100444.56;1732552;81;21006;-67
2021/07/23 03:58:05;;;;;;;6.58;2.45;;;;;;;17.10;58.46;100448.55;1748600;80;21045;-68
2021/07/23 04:00:32;;;;;;;7.95;2.40;;;;;;;17.13;58.22;100442.05;1755497;81;21042;-67
2021/07/23 04:02:58;;;;;;;6.45;2.25;;;;;;;17.16;58.35;100445.21;1751192;81;21126;-67
2021/07/23 04:05:26;;;;;;;8.30;2.00;;;;;;;17.20;58.44;100449.22;1733347;81;21037;-68
2021/07/23 04:07:56;;;;;;;4.85;1.92;;;;;;;17.33;58.31;100439.91;1733641;82;21134;-69
2021/07/23 04:10:26;;;;;;;6.35;2.12;;;;;;;17.43;58.44;100448.56;1767318;81;21487;-70
2021/07/23 04:12:53;;;;;;;6.47;2.62;;;;;;;17.47;58.39;100452.56;1762958;80;21023;-68
2021/07/23 04:15:21;;;;;;;6.85;2.05;;;;;;;17.52;58.41;100445.42;1766530;81;21056;-70
2021/07/23 04:18:08;;;;;;;7.55;2.50;;;;;;;17.57;58.32;100451.89;1726752;81;21076;-72
2021/07/23 04:20:36;;;;;;;4.62;2.10;;;;;;;17.63;58.30;100451.23;1748361;80;21695;-68
2021/07/23 04:23:03;;;;;;;8.25;2.35;;;;;;;17.70;58.40;100450.55;1748145;80;21194;-66
2021/07/23 04:25:31;;;;;;;10.88;2.50;;;;;;;17.75;58.52;100445.08;1750985;81;21049;-65
2021/07/23 04:27:58;;;;;;;4.53;2.00;;;;;;;17.79;58.37;100442.91;1760469;80;21045;-66
2021/07/23 04:30:27;;;;;;;5.80;2.60;;;;;;;17.85;58.44;100442.20;1748477;81;21070;-69
2021/07/23 04:33:13;;;;;;;4.83;2.42;;;;;;;17.92;57.78;100443.72;1764426;80;21058;-64
2021/07/23 04:35:42;;;;;;;4.40;2.12;;;;;;;17.97;57.50;100442.23;1763517;81;21211;-70
2021/07/23 04:38:09;;;;;;;5.83;2.42;;;;;;;18.08;57.22;100442.88;1761634;80;21066;-67
2021/07/23 04:40:43;;;;;;;6.28;2.60;;;;;;;18.13;56.95;100437.87;1766276;81;21556;-66
2021/07/23 04:43:11;;;;;;;6.90;2.52;;;;;;;18.16;57.04;100441.02;1725981;81;21058;-68
2021/07/23 04:45:40;;;;;;;7.92;2.40;;;;;;;18.20;56.62;100438.83;1738738;81;21067;-72
2021/07/23 04:48:06;;;;;;;6.35;2.65;;;;;;;18.25;57.27;100440.98;1756886;80;21590;-66
2021/07/23 04:50:35;;;;;;;5.28;2.27;;;;;;;18.32;56.75;100431.30;1781814;80;21596;-63
2021/07/23 04:53:19;;;;;;;5.35;2.52;;;;;;;18.48;56.12;100438.41;1767684;80;21580;-62
2021/07/23 04:55:53;;;;;;;6.72;2.70;;;;;;;18.57;56.10;100436.84;1719450;78;21023;-63
2021/07/23 04:58:21;;;;;;;5.30;2.45;;;;;;;18.64;56.24;100429.50;1779934;80;21059;-64
2021/07/23 05:00:48;;;;;;;4.40;2.45;;;;;;;18.74;56.14;100434.95;1779239;80;21130;-64
2021/07/23 05:03:14;;;;;;;7.10;2.67;;;;;;;18.82;55.86;100429.24;1754290;81;21079;-64
2021/07/23 05:05:43;;;;;;;7.35;2.42;;;;;;;18.88;55.54;100428.58;1744891;80;21027;-66
2021/07/23 05:08:10;;;;;;;5.62;2.52;;;;;;;18.97;55.48;100429.36;1757226;80;21072;-64
2021/07/23 05:10:37;;;;;;;5.03;2.52;;;;;;;19.06;55.40;100431.80;1788485;78;21481;-65
2021/07/23 05:13:09;;;;;;;7.50;2.35;;;;;;;19.13;55.20;100431.89;1783642;80;21124;-65
2021/07/23 05:15:38;;;;;;;5.97;2.62;;;;;;;19.19;54.43;100437.03;1792193;78;21448;-66
2021/07/23 05:18:04;;;;;;;7.97;2.45;;;;;;;19.23;54.75;100433.84;1746972;80;21516;-65
2021/07/23 05:20:30;;;;;;;5.95;2.72;;;;;;;19.29;55.02;100430.44;1776382;80;21079;-63
2021/07/23 05:22:57;;;;;;;6.15;2.55;;;;;;;19.39;54.41;100436.05;1769416;80;21541;-63
2021/07/23 05:25:23;;;;;;;5.55;2.75;;;;;;;19.47;54.08;100438.66;1772016;79;21055;-64
2021/07/23 05:27:50;;;;;;;6.42;2.52;;;;;;;19.55;53.69;100444.41;1769432;80;21008;-64
2021/07/23 05:30:17;;;;;;;6.70;2.83;;;;;;;19.61;53.43;100433.02;1742334;80;21067;-64
2021/07/23 05:32:43;;;;;;;6.00;2.37;;;;;;;19.70;53.12;100433.77;1768979;80;21025;-63
2021/07/23 05:35:10;;;;;;;6.53;2.77;;;;;;;19.76;52.88;100436.58;1763541;80;21541;-62
2021/07/23 05:37:36;;;;;;;4.00;1.95;;;;;;;19.83;53.22;100430.82;1768933;79;21132;-63
2021/07/23 05:40:05;;;;;;;8.33;2.50;;;;;;;19.93;52.82;100435.08;1771038;80;21520;-63
2021/07/23 05:42:32;;;;;;;7.97;1.90;;;;;;;20.00;52.76;100436.00;1734582;80;21533;-65
2021/07/23 05:44:58;;;;;;;9.00;2.67;;;;;;;20.08;52.86;100437.25;1777433;80;21112;-63
2021/07/23 05:47:25;;;;;;;7.58;1.85;;;;;;;20.17;50.43;100437.50;1781942;80;21093;-63
2021/07/23 05:49:51;;;;;;;6.92;2.33;;;;;;;20.26;50.52;100437.37;1774640;80;23294;-62
2021/07/23 05:52:18;;;;;;;9.35;2.45;;;;;;;20.33;50.71;100439.14;1774109;80;21062;-61
2021/07/23 05:54:44;;;;;;;4.78;2.00;;;;;;;20.40;51.05;100430.69;1767593;80;21551;-62
2021/07/23 05:57:11;;;;;;;8.95;2.20;;;;;;;20.51;50.96;100436.56;1751637;80;21039;-68
2021/07/23 05:59:38;;;;;;;5.78;2.33;;;;;;;20.57;51.36;100433.98;1737739;80;21020;-68
2021/07/23 06:02:04;;;;;;;6.20;2.17;;;;;;;20.65;50.84;100434.94;1764279;79;21069;-62
2021/07/23 06:04:31;;;;;;;8.80;2.10;;;;;;;20.74;51.01;100436.47;1766839;80;21133;-66
2021/07/23 06:06:58;;;;;;;4.72;2.22;;;;;;;20.82;50.16;100439.03;1773043;79;21085;-63
2021/07/23 06:09:25;;;;;;;4.67;1.77;;;;;;;20.89;49.71;100437.25;1757560;80;21322;-65
2021/07/23 06:11:51;;;;;;;6.12;2.85;;;;;;;20.97;50.21;100447.84;1739834;80;21121;-68
2021/07/23 06:14:19;;;;;;;6.85;2.55;;;;;;;21.06;49.88;100441.03;1757203;79;21142;-66
2021/07/23 06:16:45;;;;;;;6.22;2.20;;;;;;;21.14;49.93;100435.04;1729874;80;21068;-66
2021/07/23 06:19:12;;;;;;;5.55;2.15;;;;;;;21.22;49.42;100441.31;1766100;80;21077;-64
2021/07/23 06:21:39;;;;;;;7.20;2.40;;;;;;;21.30;49.35;100435.31;1764713;79;21094;-65
2021/07/23 06:24:05;;;;;;;7.40;2.12;;;;;;;21.35;49.65;100436.08;1770831;79;21526;-66
2021/07/23 06:26:32;;;;;;;6.25;2.22;;;;;;;21.40;49.63;100438.16;1748886;81;21021;-67
2021/07/23 06:28:58;;;;;;;6.60;2.17;;;;;;;21.44;49.23;100440.27;1785145;80;21036;-65
2021/07/23 06:31:25;;;;;;;6.00;2.02;;;;;;;21.50;49.59;100433.33;1753743;81;21128;-65
2021/07/23 06:33:54;;;;;;;5.47;2.00;;;;;;;21.58;49.30;100431.03;1753618;80;21598;-73
2021/07/23 06:36:22;;;;;;;5.45;1.60;;;;;;;21.66;49.52;100434.39;1754635;79;21050;-68
2021/07/23 06:38:48;;;;;;;5.00;1.70;;;;;;;21.74;48.89;100433.43;1758589;80;22127;-66
2021/07/23 06:41:15;;;;;;;6.72;1.90;;;;;;;21.80;48.85;100426.45;1753002;80;21056;-68
2021/07/23 06:43:41;;;;;;;7.30;2.42;;;;;;;21.88;48.35;100424.45;1744917;80;21049;-68
2021/07/23 06:46:08;;;;;;;6.20;2.35;;;;;;;21.97;47.36;100421.61;1810670;78;20998;-70
2021/07/23 06:48:36;;;;;;;5.95;1.70;;;;;;;22.02;46.82;100422.70;1788451;78;21608;-69
2021/07/23 06:51:04;;;;;;;7.60;2.25;;;;;;;22.09;46.52;100424.08;1753816;79;22196;-71
2021/07/23 06:53:33;;;;;;;7.03;2.40;;;;;;;22.17;47.70;100418.53;1807544;78;22195;-74
2021/07/23 06:56:01;;;;;;;12.07;3.00;;;;;;;22.25;45.38;100424.25;1806821;78;21066;-68
2021/07/23 06:58:29;;;;;;;10.25;2.80;;;;;;;22.29;44.76;100421.50;1781280;78;21078;-71
2021/07/23 07:00:55;;;;;;;5.75;2.10;;;;;;;22.35;45.22;100423.40;1801897;78;21054;-68
2021/07/23 07:03:23;;;;;;;7.58;1.90;;;;;;;22.41;44.83;100421.27;1802229;78;21099;-69
2021/07/23 07:05:50;;;;;;;11.25;2.30;;;;;;;22.47;44.17;100417.47;1800427;78;21026;-66
2021/07/23 07:08:18;;;;;;;5.53;1.60;;;;;;;22.51;43.78;100418.22;1805304;78;21070;-66
2021/07/23 07:10:45;;;;;;;5.60;2.05;;;;;;;22.55;41.63;100411.94;1788730;78;21082;-69
2021/07/23 07:13:11;;;;;;;5.03;1.60;;;;;;;22.61;42.89;100415.14;1780126;79;21053;-67
2021/07/23 07:15:39;;;;;;;7.37;2.00;;;;;;;22.67;42.75;100413.00;1790464;78;21451;-67
2021/07/23 07:18:06;;;;;;;5.97;1.65;;;;;;;22.72;42.13;100413.22;1786136;79;21097;-66
2021/07/23 07:20:33;;;;;;;5.55;2.10;;;;;;;22.77;42.08;100418.80;1776908;78;21073;-68
2021/07/23 07:23:01;;;;;;;6.30;2.30;;;;;;;22.82;41.64;100414.18;1805351;78;21072;-67
2021/07/23 07:25:30;;;;;;;4.95;2.00;;;;;;;22.88;41.53;100421.92;1806887;77;21109;-71
2021/07/23 07:27:57;;;;;;;5.00;1.47;;;;;;;22.94;42.67;100414.41;1785929;78;21069;-68
2021/07/23 07:30:25;;;;;;;4.95;2.15;;;;;;;23.01;42.48;100415.24;1807417;78;21077;-71
2021/07/23 07:32:52;;;;;;;3.22;1.55;;;;;;;23.06;43.44;100409.27;1754659;79;21030;-70
2021/07/23 07:35:19;;;;;;;6.97;1.77;;;;;;;23.11;42.23;100417.04;1745964;80;21057;-71
2021/07/23 07:37:46;;;;;;;5.78;2.20;;;;;;;23.16;41.47;100413.22;1801282;78;21136;-68
2021/07/23 07:40:13;;;;;;;5.72;1.90;;;;;;;23.21;40.90;100417.17;1768449;80;21063;-68
2021/07/23 07:42:41;;;;;;;7.55;2.00;;;;;;;23.24;40.81;100415.42;1782853;78;21586;-72
2021/07/23 07:45:09;;;;;;;5.58;2.15;;;;;;;23.26;41.04;100414.69;1774149;78;21081;-72
2021/07/23 07:47:35;;;;;;;6.25;1.67;;;;;;;23.27;40.94;100413.67;1784333;78;21049;-72
2021/07/23 07:50:02;;;;;;;5.35;1.45;;;;;;;23.30;41.34;100407.87;1803565;78;21061;-71
2021/07/23 07:52:29;;;;;;;5.70;1.80;;;;;;;23.34;41.64;100407.78;1777103;78;21172;-73
2021/07/23 07:57:13;;;;;;;4.28;1.60;;;;;;;23.44;41.10;100411.41;1793390;77;22456;-72
2021/07/23 07:59:39;;;;;;;4.95;1.35;;;;;;;23.39;39.99;100413.36;1752867;80;21520;-73
2021/07/23 08:02:08;;;;;;;7.70;1.72;;;;;;;23.43;39.99;100409.73;1709509;83;21109;-72
2021/07/23 08:04:35;;;;;;;3.87;1.27;;;;;;;23.43;39.67;100413.23;1712033;83;21043;-72
2021/07/23 08:07:09;;;;;;;4.17;1.30;;;;;;;23.45;39.65;100416.56;1707093;81;20994;-71
2021/07/23 08:09:58;;;;;;;4.90;1.60;;;;;;;23.49;40.05;100419.14;1718765;81;21059;-69
2021/07/23 08:12:23;;;;;;;4.72;1.45;;;;;;;23.53;39.99;100419.55;1674976;82;21505;-74
2021/07/23 08:14:49;;;;;;;5.67;1.62;;;;;;;23.61;39.72;100425.23;1684400;82;21179;-69
2021/07/23 08:17:16;;;;;;;3.35;1.27;;;;;;;23.68;38.80;100427.39;1719141;82;21596;-70
2021/07/23 08:19:42;;;;;;;4.70;1.70;;;;;;;23.74;39.64;100423.87;1688573;82;21051;-70
2021/07/23 08:22:09;;;;;;;4.47;1.47;;;;;;;23.82;38.93;100420.16;1723864;81;21094;-70
2021/07/23 08:24:36;;;;;;;8.48;1.95;;;;;;;23.87;38.55;100417.67;1712465;82;21019;-70
2021/07/23 08:27:03;;;;;;;5.17;1.62;;;;;;;23.88;39.31;100422.84;1688102;82;21137;-74
2021/07/23 08:29:31;;;;;;;4.42;1.60;;;;;;;23.91;38.00;100416.23;1726372;82;21058;-71
2021/07/23 08:32:08;;;;;;;10.90;1.70;;;;;;;23.97;38.89;100414.55;1682616;84;21087;-70
2021/07/23 08:34:34;;;;;;;3.35;1.25;;;;;;;24.00;38.36;100407.42;1712277;82;25074;-73
2021/07/23 08:37:01;;;;;;;3.95;1.17;;;;;;;24.01;38.05;100417.15;1723594;82;20954;-71
2021/07/23 08:39:28;;;;;;;4.05;1.25;;;;;;;24.02;38.35;100416.09;1688911;82;21845;-72
2021/07/23 08:41:55;;;;;;;4.80;1.40;;;;;;;24.07;39.07;100418.47;1715764;82;21833;-72
2021/07/23 08:44:22;;;;;;;6.12;1.80;;;;;;;24.14;37.83;100412.23;1721417;82;21360;-74
2021/07/23 08:48:06;;;;;;;7.53;2.05;;;;;;;24.24;38.63;100412.11;1795080;77;22036;-71
2021/07/23 08:50:33;;;;;;;5.67;2.10;;;;;;;24.23;37.66;100413.14;1774274;80;20955;-76
2021/07/23 08:53:00;;;;;;;5.30;1.82;;;;;;;24.25;37.60;100415.09;1779620;78;21216;-69
2021/07/23 08:55:32;;;;;;;6.10;1.90;;;;;;;24.32;37.28;100407.52;1757059;80;21086;-71
2021/07/23 08:57:55;;;;;;;4.35;1.52;;;;;;;24.35;36.82;100414.64;1734751;80;21483;-70
2021/07/23 09:00:22;;;;;;;4.30;2.10;;;;;;;24.33;36.61;100412.69;1750287;81;21102;-71
2021/07/23 09:03:07;;;;;;;3.58;1.30;;;;;;;24.35;37.47;100410.61;1723715;80;21530;-70
2021/07/23 09:05:38;;;;;;;4.12;1.55;;;;;;;24.41;37.66;100413.80;1741751;80;21229;-72
2021/07/23 09:08:15;;;;;;;5.05;1.98;;;;;;;24.45;37.92;100412.85;1741136;81;21557;-70
2021/07/23 09:10:42;;;;;;;3.60;1.25;;;;;;;24.48;37.27;100401.67;1716911;80;21642;-71
2021/07/23 09:13:09;;;;;;;4.53;1.50;;;;;;;24.51;38.10;100405.28;1743315;81;21764;-69
2021/07/23 09:15:39;;;;;;;5.25;1.92;;;;;;;24.53;36.98;100405.89;1739990;80;21107;-73
2021/07/23 09:18:07;;;;;;;3.60;1.37;;;;;;;24.59;36.71;100405.57;1748746;80;21873;-69
2021/07/23 09:20:33;;;;;;;4.65;1.32;;;;;;;24.66;37.00;100404.50;1718531;81;21036;-75
2021/07/23 09:23:01;;;;;;;2.50;1.12;;;;;;;24.73;37.33;100403.63;1721987;81;21540;-70
2021/07/23 09:25:41;;;;;;;5.10;1.65;;;;;;;24.76;36.79;100402.66;1741964;80;21587;-70
2021/07/23 09:28:27;;;;;;;8.58;1.77;;;;;;;24.83;37.05;100403.97;1749725;80;21635;-71
2021/07/23 09:30:56;;;;;;;3.45;1.17;;;;;;;24.93;37.52;100397.63;1747467;80;21245;-73
2021/07/23 09:33:25;;;;;;;5.15;1.92;;;;;;;25.04;37.59;100397.43;1743221;81;21564;-71
2021/07/23 09:35:55;;;;;;;4.55;1.47;;;;;;;25.09;37.22;100391.40;1746526;80;21015;-70
2021/07/23 09:38:26;;;;;;;3.85;1.70;;;;;;;25.12;37.58;100388.28;1723413;81;21565;-71
2021/07/23 09:40:53;;;;;;;3.27;1.37;;;;;;;25.13;37.17;100385.87;1698321;80;21062;-69
2021/07/23 09:43:34;;;;;;;3.87;1.37;;;;;;;25.10;37.56;100386.30;1721025;81;21249;-69
2021/07/23 09:46:21;;;;;;;5.58;1.80;;;;;;;25.09;37.25;100387.36;1716088;80;21599;-70
2021/07/23 09:48:48;;;;;;;4.12;1.30;;;;;;;25.08;36.95;100381.66;1664743;83;21024;-69
2021/07/23 09:51:14;;;;;;;2.95;1.10;;;;;;;25.09;37.08;100375.25;1704214;82;21030;-71
2021/07/23 09:53:41;;;;;;;5.28;1.30;;;;;;;25.12;37.36;100372.13;1684706;83;21118;-70
2021/07/23 09:56:09;;;;;;;3.30;1.20;;;;;;;25.11;37.25;100369.12;1738542;80;21215;-76
2021/07/23 09:58:46;;;;;;;3.42;1.52;;;;;;;25.14;37.13;100374.88;1742248;80;21064;-69
2021/07/23 10:01:22;;;;;;;4.00;1.30;;;;;;;25.20;36.60;100365.94;1706270;80;21070;-71
2021/07/23 10:03:49;;;;;;;3.70;1.47;;;;;;;25.26;36.38;100366.10;1739928;81;21040;-72
2021/07/23 10:06:35;;;;;;;4.67;1.52;;;;;;;25.30;37.26;100362.78;1714677;80;21087;-70
2021/07/23 10:09:10;;;;;;;6.80;1.75;;;;;;;25.36;36.91;100364.57;1740930;82;21330;-69
2021/07/23 10:11:41;;;;;;;6.20;1.47;;;;;;;25.38;36.41;100362.48;1744393;81;21068;-70
2021/07/23 10:14:10;;;;;;;3.65;1.55;;;;;;;25.38;37.22;100361.12;1709806;82;21099;-72
2021/07/23 10:16:39;;;;;;;6.25;1.50;;;;;;;25.45;36.16;100357.56;1739503;80;21077;-72
2021/07/23 10:19:07;;;;;;;5.95;1.50;;;;;;;25.44;37.03;100359.44;1740006;81;21020;-74
2021/07/23 10:21:35;;;;;;;2.95;1.22;;;;;;;25.44;37.21;100355.94;1717107;80;21055;-71
2021/07/23 10:24:01;;;;;;;3.50;1.22;;;;;;;25.47;36.48;100354.96;1744592;81;22184;-71
2021/07/23 10:26:29;;;;;;;4.30;1.60;;;;;;;25.54;36.31;100353.55;1708598;82;21110;-71
2021/07/23 10:28:58;;;;;;;4.40;1.50;;;;;;;25.63;37.09;100352.20;1735754;80;21047;-71
2021/07/23 10:31:33;;;;;;;3.27;1.35;;;;;;;25.67;36.35;100349.37;1744936;80;21074;-71
2021/07/23 10:34:06;;;;;;;5.85;1.62;;;;;;;25.70;36.79;100352.13;1701899;82;21087;-71
2021/07/23 10:36:37;;;;;;;4.67;1.47;;;;;;;25.67;35.87;100349.37;1735816;80;21082;-71
2021/07/23 10:39:20;;;;;;;3.17;1.35;;;;;;;25.66;35.76;100346.91;1748755;80;21063;-70
2021/07/23 10:41:52;;;;;;;3.67;1.80;;;;;;;25.67;35.34;100341.80;1741926;80;20983;-69
2021/07/23 10:44:37;;;;;;;7.65;3.42;;;;;;;25.70;35.67;100338.66;1717616;82;21870;-69
2021/07/23 10:47:04;;;;;;;6.53;2.15;;;;;;;25.77;36.35;100341.59;1739643;80;21118;-71
2021/07/23 10:49:38;;;;;;;6.20;1.75;;;;;;;25.83;36.06;100337.70;1744959;82;21454;-69
2021/07/23 10:52:05;;;;;;;5.22;1.85;;;;;;;25.86;36.32;100337.25;1742851;80;21581;-69
2021/07/23 10:54:33;;;;;;;7.22;1.60;;;;;;;25.90;35.90;100335.74;1754694;80;21021;-71
2021/07/23 10:57:06;;;;;;;4.42;1.50;;;;;;;25.94;35.54;100337.77;1677375;83;21699;-74
2021/07/23 10:59:44;;;;;;;5.90;2.60;;;;;;;26.00;36.04;100336.06;1675538;83;21564;-74
2021/07/23 11:02:19;;;;;;;3.60;1.50;;;;;;;26.07;36.00;100333.28;1742172;80;21051;-71
2021/07/23 11:04:46;;;;;;;;;;;;;;;26.10;35.90;100330.14;1741417;81;21038;-73
2021/07/23 11:07:13;;;;;;;5.97;1.75;;;;;;;26.14;35.74;100318.68;1744526;80;20332;-69
2021/07/23 11:09:39;;;;;;;3.65;1.52;;;;;;;26.19;35.48;100316.62;1747801;82;21017;-70
2021/07/23 11:12:26;;;;;;;4.40;1.47;;;;;;;26.22;33.86;100316.72;1739542;80;21148;-75
2021/07/23 11:15:02;;;;;;;7.67;1.70;;;;;;;26.27;33.93;100314.97;1706549;83;21062;-70
2021/07/23 11:17:30;;;;;;;4.25;2.15;;;;;;;26.39;35.25;100315.55;1716659;82;21050;-70
2021/07/23 11:19:59;;;;;;;4.17;1.90;;;;;;;26.48;34.95;100315.00;1733782;81;21049;-73
2021/07/23 11:22:27;;;;;;;6.87;1.80;;;;;;;26.54;34.86;100310.55;1747102;80;21038;-74
2021/07/23 11:24:55;;;;;;;8.35;2.15;;;;;;;26.55;34.39;100310.86;1743317;81;21873;-75
2021/07/23 11:27:30;;;;;;;7.03;1.85;;;;;;;26.50;34.27;100314.23;1746444;80;22233;-71
2021/07/23 11:29:57;;;;;;;3.62;1.70;;;;;;;26.39;34.38;100308.27;1738595;80;21106;-74
2021/07/23 11:32:24;;;;;;;3.90;1.50;;;;;;;26.29;35.10;100313.39;1716419;82;21047;-73
2021/07/23 11:35:06;;;;;;;3.60;1.52;;;;;;;26.24;34.20;100306.52;1742869;80;21011;-71